Time;durP1;ratioP1;P1;durP2;ratioP2;P2;SDS_P1;SDS_P2;PMS_P1;PMS_P2;Temp;Humidity;BMP_temperature;BMP_pressure;BME280_temperature;BME280_humidity;BME280_pressure;Samples;Min_cycle;Max_cycle;Signal;HPM_P1;HPM_P2
2024/04/19 00:01:39;;;;;;;6.03;5.53;;;5.00;99.90;;;;;;5309933;27;20277;-71
2024/04/19 00:04:05;;;;;;;5.70;5.20;;;5.00;99.90;;;;;;5310503;26;20707;-71
2024/04/19 00:06:31;;;;;;;5.10;4.70;;;5.00;99.90;;;;;;5311889;26;20573;-69
2024/04/19 00:08:57;;;;;;;6.70;5.30;;;5.00;99.90;;;;;;5302338;26;20446;-71
2024/04/19 00:11:22;;;;;;;5.83;5.00;;;4.90;99.90;;;;;;5302999;27;20230;-71
2024/04/19 00:13:48;;;;;;;6.00;5.40;;;4.90;99.90;;;;;;5278684;26;20235;-71
2024/04/19 00:16:13;;;;;;;6.10;5.50;;;4.90;99.90;;;;;;5294489;27;20277;-72
2024/04/19 00:18:39;;;;;;;5.50;5.00;;;4.90;99.90;;;;;;5308657;26;20813;-71
2024/04/19 00:21:04;;;;;;;5.90;4.80;;;4.90;99.90;;;;;;5295482;27;20360;-71
2024/04/19 00:23:30;;;;;;;8.50;6.17;;;4.90;99.90;;;;;;5309398;26;20265;-71
2024/04/19 00:25:55;;;;;;;7.53;5.57;;;4.90;99.90;;;;;;5310285;26;20284;-71
2024/04/19 00:28:21;;;;;;;6.40;5.80;;;4.80;99.90;;;;;;5290190;26;20705;-71
2024/04/19 00:30:46;;;;;;;5.40;4.90;;;4.90;99.90;;;;;;5281270;27;20725;-71
2024/04/19 00:33:12;;;;;;;6.77;4.90;;;4.90;99.90;;;;;;5277768;27;20223;-71
2024/04/19 00:35:37;;;;;;;5.90;5.40;;;4.90;99.90;;;;;;5310747;26;20226;-70
2024/04/19 00:38:03;;;;;;;7.53;5.80;;;4.90;99.90;;;;;;5286697;26;20219;-71
2024/04/19 00:40:29;;;;;;;7.00;6.30;;;4.90;99.90;;;;;;5288802;26;20298;-71
2024/04/19 00:42:56;;;;;;;5.83;4.90;;;4.90;99.90;;;;;;5283522;27;20257;-71
2024/04/19 00:45:40;;;;;;;7.23;6.10;;;4.90;99.90;;;;;;5286274;27;20287;-71
2024/04/19 00:48:10;;;;;;;5.77;5.27;;;4.90;99.90;;;;;;5302730;27;20466;-71
2024/04/19 00:50:38;;;;;;;6.27;5.67;;;4.90;99.90;;;;;;5277603;27;20999;-71
2024/04/19 00:53:04;;;;;;;7.63;6.73;;;4.90;99.90;;;;;;5277511;27;20451;-71
2024/04/19 00:55:31;;;;;;;7.77;6.20;;;4.90;99.90;;;;;;5288189;27;20454;-71
2024/04/19 00:57:58;;;;;;;7.90;6.70;;;4.90;99.90;;;;;;5302212;26;20462;-71
2024/04/19 01:00:25;;;;;;;6.40;5.80;;;4.80;99.90;;;;;;5279445;27;20469;-71
2024/04/19 01:02:53;;;;;;;6.37;5.77;;;4.90;99.90;;;;;;5284968;26;20509;-71
2024/04/19 01:05:19;;;;;;;6.90;5.33;;;4.90;99.90;;;;;;5295378;27;20466;-71
2024/04/19 01:07:45;;;;;;;8.30;5.13;;;4.90;99.90;;;;;;5307209;27;20576;-71
2024/04/19 01:10:11;;;;;;;6.00;5.50;;;4.90;99.90;;;;;;5310700;26;20469;-71
2024/04/19 01:12:36;;;;;;;6.50;5.90;;;4.90;99.90;;;;;;5311287;26;20696;-71
2024/04/19 01:15:02;;;;;;;7.47;5.80;;;4.90;99.90;;;;;;5302371;27;20578;-71
2024/04/19 01:17:28;;;;;;;7.00;5.73;;;5.00;99.90;;;;;;5276630;27;20219;-71
2024/04/19 01:19:53;;;;;;;7.60;6.23;;;5.00;99.90;;;;;;5295996;27;20222;-70
2024/04/19 01:22:19;;;;;;;7.17;6.00;;;5.00;99.90;;;;;;5300938;26;20614;-71
2024/04/19 01:24:51;;;;;;;6.10;5.50;;;5.00;99.90;;;;;;5309867;26;20222;-71
2024/04/19 01:27:16;;;;;;;6.27;5.67;;;5.00;99.90;;;;;;5282594;27;20223;-71
2024/04/19 01:29:42;;;;;;;6.20;5.60;;;5.00;99.90;;;;;;5308793;27;20608;-71
2024/04/19 01:32:08;;;;;;;9.53;5.50;;;4.90;99.90;;;;;;5304424;26;20227;-71
2024/04/19 01:34:34;;;;;;;6.50;5.90;;;4.90;99.90;;;;;;5276699;27;20211;-71
2024/04/19 01:36:59;;;;;;;8.17;6.10;;;4.80;99.90;;;;;;5283583;27;20560;-71
2024/04/19 01:39:25;;;;;;;9.03;6.60;;;4.80;99.90;;;;;;5276884;27;20317;-71
2024/04/19 01:41:54;;;;;;;7.80;6.40;;;4.70;99.90;;;;;;5280538;27;20650;-71
2024/04/19 01:44:20;;;;;;;7.23;6.53;;;4.70;99.90;;;;;;5303002;26;20286;-71
2024/04/19 01:46:45;;;;;;;6.67;5.37;;;4.70;99.90;;;;;;5310003;27;20454;-70
2024/04/19 01:49:11;;;;;;;6.47;5.80;;;4.70;99.90;;;;;;5309519;26;20226;-71
2024/04/19 01:51:36;;;;;;;8.23;6.17;;;4.70;99.90;;;;;;5310429;26;20215;-71
2024/04/19 01:54:02;;;;;;;7.37;6.07;;;4.70;99.90;;;;;;5305696;26;20619;-71
2024/04/19 01:56:27;;;;;;;7.60;6.20;;;4.60;99.90;;;;;;5325203;22;20300;-71
2024/04/19 01:58:53;;;;;;;8.70;6.27;;;4.60;99.90;;;;;;5300629;27;20269;-71
2024/04/19 02:01:20;;;;;;;6.50;5.90;;;4.60;99.90;;;;;;5304716;26;20260;-71
2024/04/19 02:03:45;;;;;;;6.80;6.20;;;4.60;99.90;;;;;;5309687;26;20218;-71
2024/04/19 02:06:15;;;;;;;8.27;6.60;;;4.60;99.90;;;;;;5310759;26;20505;-71
2024/04/19 02:08:41;;;;;;;11.60;7.20;;;4.60;99.90;;;;;;5296375;26;20227;-70
2024/04/19 02:11:06;;;;;;;8.23;7.43;;;4.60;99.90;;;;;;5282749;27;20509;-70
2024/04/19 02:13:32;;;;;;;8.00;7.20;;;4.60;99.90;;;;;;5298472;27;20473;-71
2024/04/19 02:15:58;;;;;;;7.53;6.60;;;4.60;99.90;;;;;;5293808;26;20722;-70
2024/04/19 02:18:24;;;;;;;8.50;7.37;;;4.60;99.90;;;;;;5310032;26;20210;-71
2024/04/19 02:20:49;;;;;;;9.13;6.90;;;4.60;99.90;;;;;;5310162;26;20456;-70
2024/04/19 02:23:43;;;;;;;6.87;6.10;;;4.70;99.90;;;;;;5296215;26;20331;-70
2024/04/19 02:26:09;;;;;;;8.63;7.50;;;4.70;99.90;;;;;;5308697;26;20705;-70
2024/04/19 02:31:20;;;;;;;7.83;7.03;;;4.70;99.90;;;;;;5296342;27;20887;-70
2024/04/19 02:33:46;;;;;;;8.93;6.93;;;4.70;99.90;;;;;;5310079;26;20453;-70
2024/04/19 02:36:12;;;;;;;11.13;8.27;;;4.70;99.90;;;;;;5309859;26;20491;-70
2024/04/19 02:38:38;;;;;;;8.63;7.37;;;4.70;99.90;;;;;;5276616;26;20454;-71
2024/04/19 02:41:04;;;;;;;10.40;7.27;;;4.70;99.90;;;;;;5278305;27;20273;-70
2024/04/19 02:43:30;;;;;;;9.70;8.27;;;4.70;99.90;;;;;;5300733;26;20661;-70
2024/04/19 02:45:56;;;;;;;11.10;7.20;;;4.70;99.90;;;;;;5308607;26;20525;-70
2024/04/19 02:48:21;;;;;;;10.53;8.00;;;4.70;99.90;;;;;;5309555;26;20207;-70
2024/04/19 02:50:50;;;;;;;8.93;7.67;;;4.80;99.90;;;;;;5309631;26;20206;-70
2024/04/19 02:53:16;;;;;;;12.27;7.93;;;4.80;99.90;;;;;;5276483;27;20732;-70
2024/04/19 02:55:41;;;;;;;9.27;7.50;;;4.80;99.90;;;;;;5275492;27;20593;-70
2024/04/19 02:58:07;;;;;;;9.37;7.80;;;4.80;99.90;;;;;;5295580;27;20584;-70
2024/04/19 03:00:33;;;;;;;12.93;8.13;;;4.80;99.90;;;;;;5302737;26;20847;-70
2024/04/19 03:02:59;;;;;;;8.63;6.87;;;4.80;99.90;;;;;;5289547;27;20265;-70
2024/04/19 03:05:24;;;;;;;10.07;8.40;;;4.80;99.90;;;;;;5299322;27;20230;-70
2024/04/19 03:07:50;;;;;;;10.20;8.33;;;4.90;99.90;;;;;;5288556;26;20239;-70
2024/04/19 03:10:15;;;;;;;9.70;7.17;;;4.90;99.90;;;;;;5309665;27;20226;-70
2024/04/19 03:12:41;;;;;;;8.57;7.70;;;4.90;99.90;;;;;;5306206;26;20272;-70
2024/04/19 03:15:07;;;;;;;7.70;6.70;;;4.90;99.90;;;;;;5293299;26;20258;-70
2024/04/19 03:17:32;;;;;;;8.17;7.23;;;4.90;99.90;;;;;;5280215;27;20318;-70
2024/04/19 03:19:58;;;;;;;9.67;7.03;;;4.90;99.90;;;;;;5312731;26;20445;-70
2024/04/19 03:22:24;;;;;;;11.70;8.67;;;4.90;99.90;;;;;;5291167;26;20720;-70
2024/04/19 03:24:49;;;;;;;9.63;7.63;;;5.00;99.90;;;;;;5292012;27;20223;-70
2024/04/19 03:27:15;;;;;;;11.77;8.50;;;4.90;99.90;;;;;;5310927;26;20246;-68
2024/04/19 03:29:40;;;;;;;8.47;7.23;;;5.00;99.90;;;;;;5312504;26;20218;-71
2024/04/19 03:32:06;;;;;;;9.87;8.07;;;5.00;99.90;;;;;;5284546;26;20352;-68
2024/04/19 03:34:31;;;;;;;9.17;8.13;;;5.00;99.90;;;;;;5300570;27;20335;-69
2024/04/19 03:36:57;;;;;;;10.00;7.57;;;5.00;99.90;;;;;;5308875;26;20791;-71
2024/04/19 03:39:22;;;;;;;12.23;8.00;;;5.00;99.90;;;;;;5292859;27;20238;-69
2024/04/19 03:41:50;;;;;;;9.40;7.70;;;5.00;99.90;;;;;;5312207;26;20807;-69
2024/04/19 03:47:00;;;;;;;10.63;8.77;;;5.00;99.90;;;;;;5295844;27;20596;-69
2024/04/19 03:49:26;;;;;;;10.10;8.00;;;5.00;99.90;;;;;;5301989;26;20474;-69
2024/04/19 03:51:51;;;;;;;10.37;8.57;;;5.10;99.90;;;;;;5278203;27;20269;-68
2024/04/19 03:54:17;;;;;;;10.30;7.77;;;5.00;99.90;;;;;;5310318;27;20340;-70
2024/04/19 03:56:42;;;;;;;8.73;7.40;;;5.00;99.90;;;;;;5293258;26;20227;-68
2024/04/19 03:59:08;;;;;;;10.10;8.43;;;5.00;99.90;;;;;;5283790;26;20255;-70
2024/04/19 04:01:33;;;;;;;8.87;7.63;;;5.00;99.90;;;;;;5278527;27;20239;-69
2024/04/19 04:03:59;;;;;;;11.57;7.67;;;5.00;99.90;;;;;;5278375;27;20334;-69
2024/04/19 04:06:25;;;;;;;9.87;7.70;;;5.00;99.90;;;;;;5290847;27;20225;-69
2024/04/19 04:08:50;;;;;;;18.83;9.90;;;5.00;99.90;;;;;;5311982;26;20278;-69
2024/04/19 04:11:16;;;;;;;13.00;9.23;;;5.00;99.90;;;;;;5311364;26;20582;-68
2024/04/19 04:13:41;;;;;;;11.13;9.63;;;5.00;99.90;;;;;;5310709;26;20230;-68
2024/04/19 04:16:08;;;;;;;9.03;7.43;;;5.00;99.90;;;;;;5297450;27;20277;-69
2024/04/19 04:18:34;;;;;;;10.27;8.77;;;5.00;99.90;;;;;;5307329;27;20672;-69
2024/04/19 04:21:03;;;;;;;11.77;8.43;;;5.00;99.90;;;;;;5298139;26;20454;-69
2024/04/19 04:23:32;;;;;;;14.07;8.63;;;5.00;99.90;;;;;;5286229;27;20462;-69
2024/04/19 04:25:58;;;;;;;10.50;9.50;;;5.00;99.90;;;;;;5282150;27;20522;-69
2024/04/19 04:28:24;;;;;;;13.80;10.27;;;5.00;99.90;;;;;;5286749;26;20466;-69
2024/04/19 04:30:49;;;;;;;10.57;8.90;;;5.00;99.90;;;;;;5299280;27;20553;-69
2024/04/19 04:33:16;;;;;;;13.90;9.80;;;5.00;99.90;;;;;;5309305;26;20238;-69
2024/04/19 04:35:44;;;;;;;10.23;9.13;;;5.00;99.90;;;;;;5311032;26;20525;-69
2024/04/19 04:38:09;;;;;;;10.20;8.40;;;5.00;99.90;;;;;;5311652;26;20509;-69
2024/04/19 04:40:35;;;;;;;9.57;8.13;;;5.10;99.90;;;;;;5293806;26;20462;-69
2024/04/19 04:43:01;;;;;;;9.27;8.17;;;5.10;99.90;;;;;;5301015;27;20286;-69
2024/04/19 04:45:28;;;;;;;10.03;8.00;;;5.10;99.90;;;;;;5287425;26;21143;-69
2024/04/19 04:47:53;;;;;;;12.60;8.60;;;5.20;99.90;;;;;;5282209;27;20465;-69
2024/04/19 04:50:20;;;;;;;11.97;10.10;;;5.20;99.90;;;;;;5304692;26;20883;-68
2024/04/19 04:52:45;;;;;;;8.90;7.63;;;5.20;99.90;;;;;;5282207;26;20227;-68
2024/04/19 04:55:12;;;;;;;10.30;8.13;;;5.20;99.90;;;;;;5307308;26;20529;-70
2024/04/19 04:57:37;;;;;;;13.50;8.53;;;5.30;99.90;;;;;;5311133;26;20613;-69
2024/04/19 05:00:05;;;;;;;12.40;8.07;;;5.30;99.90;;;;;;5300123;26;20458;-69
2024/04/19 05:02:30;;;;;;;9.70;8.60;;;5.30;99.90;;;;;;5282058;27;20223;-68
2024/04/19 05:04:56;;;;;;;8.60;6.90;;;5.30;99.90;;;;;;5310058;26;20823;-69
2024/04/19 05:07:22;;;;;;;10.20;9.10;;;5.30;99.90;;;;;;5304961;26;20290;-69
2024/04/19 05:09:51;;;;;;;10.83;8.40;;;5.30;99.90;;;;;;5310072;26;20833;-69
2024/04/19 05:12:17;;;;;;;12.37;9.83;;;5.30;99.90;;;;;;5306959;26;20478;-68
2024/04/19 05:14:42;;;;;;;15.70;8.40;;;5.30;99.90;;;;;;5301156;27;20556;-68
2024/04/19 05:17:08;;;;;;;8.90;8.00;;;5.30;99.90;;;;;;5286293;27;20468;-69
2024/04/19 05:19:33;;;;;;;11.40;8.97;;;5.30;99.90;;;;;;5309909;26;20787;-69
2024/04/19 05:21:59;;;;;;;12.20;8.93;;;5.40;99.90;;;;;;5281907;26;20235;-69
2024/04/19 05:24:24;;;;;;;9.07;7.93;;;5.40;99.90;;;;;;5284386;27;20273;-70
2024/04/19 05:26:50;;;;;;;11.07;7.87;;;5.40;99.90;;;;;;5308916;26;20290;-68
2024/04/19 05:29:15;;;;;;;9.13;8.23;;;5.50;99.90;;;;;;5290134;27;20569;-68
2024/04/19 05:31:41;;;;;;;12.23;8.07;;;5.50;99.90;;;;;;5298984;27;20222;-68
2024/04/19 05:34:06;;;;;;;13.00;9.43;;;5.50;99.90;;;;;;5311164;26;20269;-69
2024/04/19 05:36:32;;;;;;;9.10;8.20;;;5.50;99.90;;;;;;5308240;26;20300;-68
2024/04/19 05:38:57;;;;;;;10.90;8.07;;;5.60;99.90;;;;;;5300244;26;20227;-68
2024/04/19 05:41:23;;;;;;;9.33;7.70;;;5.60;99.90;;;;;;5281435;27;20239;-69
2024/04/19 05:43:48;;;;;;;10.10;8.10;;;5.70;99.90;;;;;;5294079;26;20281;-69
2024/04/19 05:46:14;;;;;;;11.10;8.47;;;5.70;99.90;;;;;;5276585;27;20625;-69
2024/04/19 05:48:39;;;;;;;11.03;8.40;;;5.70;99.90;;;;;;5277246;27;20223;-68
2024/04/19 05:51:05;;;;;;;9.23;8.27;;;5.80;99.90;;;;;;5295316;27;20343;-69
2024/04/19 05:53:31;;;;;;;10.70;9.33;;;5.80;99.90;;;;;;5291903;26;20231;-68
2024/04/19 05:55:56;;;;;;;10.70;7.90;;;5.80;99.90;;;;;;5301505;27;20630;-68
2024/04/19 05:58:24;;;;;;;8.77;7.10;;;5.90;99.90;;;;;;5295480;26;20340;-69
2024/04/19 06:00:49;;;;;;;13.50;7.50;;;6.00;99.90;;;;;;5310137;26;20702;-68
2024/04/19 06:03:15;;;;;;;14.60;9.13;;;6.10;99.90;;;;;;5297262;26;20458;-69
2024/04/19 06:05:40;;;;;;;11.77;7.43;;;6.20;99.90;;;;;;5275980;27;20302;-69
2024/04/19 06:08:07;;;;;;;9.73;7.97;;;6.20;99.90;;;;;;5296726;27;20231;-68
2024/04/19 06:10:34;;;;;;;10.97;7.90;;;6.30;99.90;;;;;;5309900;26;20386;-69
2024/04/19 06:12:59;;;;;;;9.43;7.37;;;6.30;99.90;;;;;;5310513;26;20868;-68
2024/04/19 06:15:25;;;;;;;9.57;7.37;;;6.40;99.90;;;;;;5308469;27;20456;-69
2024/04/19 06:17:50;;;;;;;9.07;6.97;;;6.40;99.90;;;;;;5304188;26;20638;-68
2024/04/19 06:20:16;;;;;;;8.37;6.70;;;6.40;99.90;;;;;;5276046;27;20269;-68
2024/04/19 06:22:41;;;;;;;6.60;5.90;;;6.50;99.90;;;;;;5276020;27;20768;-70
2024/04/19 06:25:08;;;;;;;6.90;6.20;;;6.50;99.90;;;;;;5276196;27;20211;-68
2024/04/19 06:27:34;;;;;;;12.13;6.33;;;6.40;99.90;;;;;;5272731;27;20254;-69
2024/04/19 06:29:59;;;;;;;9.60;7.17;;;6.50;99.90;;;;;;5299398;26;20469;-68
2024/04/19 06:32:25;;;;;;;7.83;6.00;;;6.60;99.90;;;;;;5309224;26;20611;-68
2024/04/19 06:34:50;;;;;;;13.37;9.43;;;6.70;99.90;;;;;;5310009;26;20210;-68
2024/04/19 06:37:16;;;;;;;6.10;5.50;;;6.80;99.90;;;;;;5309531;26;20230;-68
2024/04/19 06:39:41;;;;;;;8.37;5.43;;;6.90;99.90;;;;;;5308585;26;20226;-69
2024/04/19 06:42:07;;;;;;;7.63;5.30;;;7.00;99.90;;;;;;5312120;26;20271;-68
2024/04/19 06:44:32;;;;;;;6.33;5.40;;;7.10;99.90;;;;;;5312794;26;20210;-69
2024/04/19 06:46:58;;;;;;;6.03;5.10;;;7.10;99.90;;;;;;5308130;26;20250;-68
2024/04/19 06:49:23;;;;;;;8.20;5.97;;;7.00;99.90;;;;;;5279004;27;20216;-68
2024/04/19 06:51:49;;;;;;;8.97;6.30;;;6.90;99.90;;;;;;5278607;27;20624;-68
2024/04/19 06:54:14;;;;;;;6.93;5.63;;;6.90;99.90;;;;;;5305431;27;20234;-68
2024/04/19 06:56:40;;;;;;;5.93;5.33;;;6.90;99.90;;;;;;5312357;26;20234;-67
2024/04/19 06:59:07;;;;;;;6.10;5.47;;;7.00;99.90;;;;;;5312645;26;20218;-68
2024/04/19 07:01:33;;;;;;;7.20;5.47;;;7.20;99.90;;;;;;5307089;26;20501;-68
2024/04/19 07:03:58;;;;;;;6.90;4.90;;;7.20;99.90;;;;;;5295437;27;20512;-68
2024/04/19 07:06:24;;;;;;;8.03;6.63;;;7.20;99.90;;;;;;5312618;26;20332;-67
2024/04/19 07:08:49;;;;;;;7.30;5.77;;;7.20;99.90;;;;;;5288791;26;20274;-68
2024/04/19 07:11:15;;;;;;;7.23;5.37;;;7.30;99.90;;;;;;5278240;27;20227;-68
2024/04/19 07:13:46;;;;;;;6.83;6.13;;;7.30;99.90;;;;;;5284445;27;20575;-68
2024/04/19 07:16:14;;;;;;;6.20;5.60;;;7.30;99.90;;;;;;5312413;26;20290;-70
2024/04/19 07:18:40;;;;;;;6.57;5.57;;;7.30;99.90;;;;;;5308835;26;20461;-68
2024/04/19 07:21:06;;;;;;;8.67;7.13;;;7.20;99.90;;;;;;5312423;26;20453;-67
2024/04/19 07:23:31;;;;;;;6.67;5.97;;;7.20;99.90;;;;;;5312775;26;20245;-68
2024/04/19 07:25:57;;;;;;;7.10;6.10;;;7.10;99.90;;;;;;5311990;26;20222;-69
2024/04/19 07:28:22;;;;;;;9.27;6.30;;;7.00;99.90;;;;;;5311250;26;20260;-68
2024/04/19 07:30:49;;;;;;;6.73;6.03;;;7.00;99.90;;;;;;5312197;26;20261;-68
2024/04/19 07:33:14;;;;;;;9.23;8.07;;;6.90;99.90;;;;;;5305424;26;20230;-67
2024/04/19 07:35:40;;;;;;;7.90;7.20;;;6.70;99.90;;;;;;5312318;26;20542;-69
2024/04/19 07:38:05;;;;;;;9.07;6.37;;;6.60;99.90;;;;;;5312672;26;20209;-67
2024/04/19 07:40:34;;;;;;;9.03;7.60;;;6.50;99.90;;;;;;5308079;26;20488;-68
2024/04/19 07:42:59;;;;;;;7.37;5.87;;;6.40;99.90;;;;;;5301808;27;20282;-68
2024/04/19 07:45:25;;;;;;;7.93;7.13;;;6.30;99.90;;;;;;5311828;27;20458;-69
2024/04/19 07:47:51;;;;;;;6.77;6.03;;;6.20;99.90;;;;;;5301293;26;20294;-68
2024/04/19 07:50:17;;;;;;;6.43;5.73;;;6.20;99.90;;;;;;5277980;27;20556;-68
2024/04/19 07:52:42;;;;;;;7.47;6.17;;;6.10;99.90;;;;;;5277214;27;20554;-68
2024/04/19 07:55:08;;;;;;;7.90;6.30;;;6.10;99.90;;;;;;5281955;27;20231;-70
2024/04/19 07:57:34;;;;;;;8.10;6.80;;;6.10;99.90;;;;;;5312386;26;20319;-70
2024/04/19 08:00:01;;;;;;;7.73;6.87;;;6.10;99.90;;;;;;5310791;26;20214;-70
2024/04/19 08:02:27;;;;;;;7.03;5.80;;;6.10;99.90;;;;;;5309335;26;20500;-69
2024/04/19 08:04:52;;;;;;;7.63;6.83;;;6.00;99.90;;;;;;5312015;26;20567;-69
2024/04/19 08:07:18;;;;;;;7.13;6.37;;;6.00;99.90;;;;;;5311549;26;20272;-69
2024/04/19 08:09:43;;;;;;;8.90;5.90;;;6.10;99.90;;;;;;5311384;26;20657;-69
2024/04/19 08:12:09;;;;;;;9.57;6.90;;;6.10;99.90;;;;;;5311321;27;20661;-69
2024/04/19 08:14:34;;;;;;;8.40;7.50;;;6.10;99.90;;;;;;5311866;26;20210;-68
2024/04/19 08:17:00;;;;;;;8.33;6.27;;;6.10;99.90;;;;;;5311217;26;20344;-68
2024/04/19 08:19:25;;;;;;;6.60;6.00;;;6.00;99.90;;;;;;5285604;26;20650;-69
2024/04/19 08:21:51;;;;;;;9.00;6.00;;;5.90;99.90;;;;;;5277251;27;20219;-69
2024/04/19 08:24:16;;;;;;;7.17;6.47;;;5.90;99.90;;;;;;5277348;27;20685;-69
2024/04/19 08:26:42;;;;;;;7.63;5.80;;;5.90;99.90;;;;;;5279967;27;20223;-70
2024/04/19 08:29:07;;;;;;;9.13;7.30;;;5.90;99.90;;;;;;5311997;26;20233;-69
2024/04/19 08:31:34;;;;;;;10.40;5.30;;;6.00;99.90;;;;;;5281374;26;20239;-67
2024/04/19 08:34:00;;;;;;;7.80;6.00;;;6.00;99.90;;;;;;5310446;26;20269;-68
2024/04/19 08:36:25;;;;;;;7.13;5.83;;;5.90;99.90;;;;;;5317011;26;20931;-67
2024/04/19 08:38:51;;;;;;;7.60;6.87;;;5.80;99.90;;;;;;5313102;26;20727;-68
2024/04/19 08:41:18;;;;;;;7.10;5.40;;;5.80;99.90;;;;;;5312022;26;20252;-68
2024/04/19 08:43:45;;;;;;;7.47;6.60;;;5.80;99.90;;;;;;5302890;26;21063;-68
2024/04/19 08:46:11;;;;;;;9.40;6.73;;;5.70;99.90;;;;;;5278865;27;21025;-67
2024/04/19 08:48:39;;;;;;;7.37;6.37;;;5.70;99.90;;;;;;5296397;27;20457;-68
2024/04/19 08:51:07;;;;;;;5.60;5.10;;;5.70;99.90;;;;;;5312095;26;20520;-68
2024/04/19 08:53:33;;;;;;;8.20;6.57;;;5.70;99.90;;;;;;5329000;26;20441;-68
2024/04/19 08:56:00;;;;;;;6.90;6.20;;;5.60;99.90;;;;;;5312093;26;20501;-68
2024/04/19 08:59:07;;;;;;;6.30;5.70;;;5.60;99.90;;;;;;5315411;26;20516;-71
2024/04/19 09:02:28;;;;;;;5.67;5.17;;;5.50;99.90;;;;;;5301619;27;20442;-70
2024/04/19 09:05:01;;;;;;;6.10;5.57;;;5.40;99.90;;;;;;5294916;26;20788;-71
2024/04/19 09:07:29;;;;;;;9.40;5.77;;;5.30;99.90;;;;;;5298242;27;20470;-70
2024/04/19 09:09:56;;;;;;;7.27;6.10;;;5.30;99.90;;;;;;5309249;26;20469;-69
2024/04/19 09:12:22;;;;;;;5.73;5.13;;;5.30;99.90;;;;;;5324405;26;20444;-70
2024/04/19 09:14:56;;;;;;;6.10;5.50;;;5.30;99.90;;;;;;5312012;26;20462;-69
2024/04/19 09:17:22;;;;;;;6.20;5.60;;;5.30;99.90;;;;;;5289383;27;20512;-69
2024/04/19 09:19:53;;;;;;;7.10;6.40;;;5.30;99.90;;;;;;5307405;26;20237;-70
2024/04/19 09:22:46;;;;;;;6.40;5.40;;;5.30;99.90;;;;;;5306901;26;20232;-70
2024/04/19 09:25:31;;;;;;;6.23;5.67;;;5.30;99.90;;;;;;5323171;26;20533;-68
2024/04/19 09:28:00;;;;;;;8.70;5.73;;;5.40;99.90;;;;;;5320164;26;20456;-70
2024/04/19 09:30:31;;;;;;;6.90;6.30;;;5.30;99.90;;;;;;5327637;27;20230;-69
2024/04/19 09:32:57;;;;;;;6.47;5.57;;;5.30;99.90;;;;;;5315490;26;20450;-69
2024/04/19 09:35:27;;;;;;;6.70;6.00;;;5.30;99.90;;;;;;5283012;27;20535;-67
2024/04/19 09:37:54;;;;;;;6.13;5.63;;;5.20;99.90;;;;;;5293485;26;20273;-70
2024/04/19 09:40:28;;;;;;;7.17;6.53;;;5.20;99.90;;;;;;5272905;26;20467;-69
2024/04/19 09:42:55;;;;;;;7.70;6.17;;;5.20;99.90;;;;;;5256363;27;20445;-68
2024/04/19 09:45:21;;;;;;;6.73;6.03;;;5.20;99.90;;;;;;5275849;27;20451;-68
2024/04/19 09:47:52;;;;;;;6.77;5.50;;;5.20;99.90;;;;;;5281032;27;20535;-69
2024/04/19 09:50:22;;;;;;;6.10;5.57;;;5.30;99.90;;;;;;5310187;26;20526;-68
2024/04/19 09:52:51;;;;;;;7.70;6.17;;;5.20;99.90;;;;;;5309121;26;20441;-68
2024/04/19 09:55:21;;;;;;;7.67;6.90;;;5.20;99.90;;;;;;5308456;26;20526;-67
2024/04/19 09:57:48;;;;;;;9.93;6.57;;;5.30;99.90;;;;;;5310290;26;20457;-68
2024/04/19 10:00:17;;;;;;;7.53;6.83;;;5.30;99.90;;;;;;5310419;26;21042;-67
2024/04/19 10:02:44;;;;;;;8.30;6.17;;;5.30;99.90;;;;;;5310407;26;20703;-69
2024/04/19 10:05:10;;;;;;;10.67;7.20;;;5.30;99.90;;;;;;5306830;26;20465;-69
2024/04/19 10:07:41;;;;;;;7.40;6.63;;;5.30;99.90;;;;;;5289430;26;21045;-70
2024/04/19 10:10:07;;;;;;;9.43;6.80;;;5.30;99.90;;;;;;5275869;27;20462;-69
2024/04/19 10:12:34;;;;;;;6.80;6.10;;;5.30;99.90;;;;;;5276010;27;20491;-69
2024/04/19 10:14:59;;;;;;;8.50;7.50;;;5.20;99.90;;;;;;5276615;27;20234;-69
2024/04/19 10:17:25;;;;;;;7.77;6.97;;;5.20;99.90;;;;;;5278847;27;20458;-69
2024/04/19 10:19:52;;;;;;;7.27;6.53;;;5.20;99.90;;;;;;5302576;27;20280;-69
2024/04/19 10:22:22;;;;;;;7.53;6.83;;;5.20;99.90;;;;;;5307288;26;20281;-69
2024/04/19 10:25:01;;;;;;;8.47;7.33;;;5.20;99.90;;;;;;5312671;26;20465;-68
2024/04/19 10:27:28;;;;;;;9.60;8.10;;;5.30;99.90;;;;;;5312921;26;21006;-69
2024/04/19 10:29:54;;;;;;;9.83;7.33;;;5.30;99.90;;;;;;5310829;26;21135;-69
2024/04/19 10:32:19;;;;;;;9.33;8.07;;;5.30;99.90;;;;;;5313206;26;20500;-67
2024/04/19 10:34:45;;;;;;;9.20;8.30;;;5.30;99.90;;;;;;5310162;26;20218;-68
2024/04/19 10:37:12;;;;;;;10.90;8.23;;;5.40;99.90;;;;;;5313541;26;20234;-68
2024/04/19 10:39:37;;;;;;;10.70;7.70;;;5.40;99.90;;;;;;5313093;26;20210;-68
2024/04/19 10:42:03;;;;;;;9.13;8.23;;;5.50;99.90;;;;;;5312603;26;20895;-68
2024/04/19 10:44:30;;;;;;;8.30;7.43;;;5.50;99.90;;;;;;5313037;26;20202;-66
2024/04/19 10:46:57;;;;;;;8.63;7.80;;;5.60;99.90;;;;;;5313243;27;20222;-67
2024/04/19 10:49:23;;;;;;;10.00;9.00;;;5.60;99.90;;;;;;5307147;26;20445;-68
2024/04/19 10:51:50;;;;;;;8.80;7.90;;;5.70;99.90;;;;;;5318047;26;20796;-67
2024/04/19 10:54:15;;;;;;;9.83;7.27;;;5.70;99.90;;;;;;5313218;26;20492;-67
2024/04/19 10:56:41;;;;;;;9.37;7.40;;;5.70;99.90;;;;;;5313013;26;21009;-67
2024/04/19 10:59:07;;;;;;;7.07;6.37;;;5.70;99.90;;;;;;5312526;26;20312;-67
2024/04/19 11:01:33;;;;;;;7.57;6.60;;;5.80;99.90;;;;;;5315946;27;20226;-68
2024/04/19 11:03:59;;;;;;;8.50;7.40;;;5.80;99.90;;;;;;5290698;27;20474;-67
2024/04/19 11:06:26;;;;;;;7.23;6.53;;;5.80;99.90;;;;;;5295751;27;20299;-67
2024/04/19 11:08:52;;;;;;;6.93;6.23;;;5.80;99.90;;;;;;5293710;27;20504;-67
2024/04/19 11:11:18;;;;;;;7.90;7.10;;;5.70;99.90;;;;;;5292932;27;20446;-66
2024/04/19 11:13:44;;;;;;;7.50;6.80;;;5.70;99.90;;;;;;5290505;26;20230;-66
2024/04/19 11:16:09;;;;;;;7.40;6.70;;;5.70;99.90;;;;;;5313732;26;20468;-67
2024/04/19 11:18:36;;;;;;;5.40;4.90;;;5.80;99.90;;;;;;5312913;26;20496;-67
2024/04/19 11:21:02;;;;;;;5.57;4.97;;;5.80;99.90;;;;;;5280661;27;20262;-67
2024/04/19 11:23:28;;;;;;;6.73;6.07;;;5.80;99.90;;;;;;5279185;27;20442;-67
2024/04/19 11:25:57;;;;;;;8.40;5.50;;;5.80;99.90;;;;;;5303010;27;20465;-67
2024/04/19 11:28:23;;;;;;;6.13;5.53;;;5.80;99.90;;;;;;5311367;26;20770;-67
2024/04/19 11:30:48;;;;;;;5.70;5.03;;;5.70;99.90;;;;;;5288891;26;20608;-68
2024/04/19 11:33:14;;;;;;;5.80;5.07;;;5.70;99.90;;;;;;5279238;27;20928;-68
2024/04/19 11:35:43;;;;;;;5.53;4.47;;;5.70;99.90;;;;;;5295602;27;20242;-67
2024/04/19 11:38:15;;;;;;;5.57;4.97;;;5.70;99.90;;;;;;5295320;26;20265;-67
2024/04/19 11:40:41;;;;;;;5.73;5.13;;;5.70;99.90;;;;;;5278472;27;20462;-67
2024/04/19 11:43:07;;;;;;;5.43;4.93;;;5.70;99.90;;;;;;5280350;27;20450;-67
2024/04/19 11:45:32;;;;;;;5.83;4.80;;;5.70;99.90;;;;;;5289051;27;20473;-67
2024/04/19 11:47:59;;;;;;;5.60;4.33;;;5.60;99.90;;;;;;5312020;26;20633;-67
2024/04/19 11:50:28;;;;;;;3.67;3.37;;;5.60;99.90;;;;;;5311139;26;20277;-67
2024/04/19 11:52:53;;;;;;;6.43;4.50;;;5.50;99.90;;;;;;5313864;26;20457;-67
2024/04/19 11:55:19;;;;;;;4.53;3.80;;;5.50;99.90;;;;;;5313681;26;20503;-66
2024/04/19 11:57:45;;;;;;;4.53;3.87;;;5.50;99.90;;;;;;5312262;27;20238;-67
2024/04/19 12:00:12;;;;;;;5.37;4.87;;;5.40;99.90;;;;;;5311742;26;20696;-67
2024/04/19 12:02:38;;;;;;;4.33;3.93;;;5.50;99.90;;;;;;5318011;26;20311;-67
2024/04/19 12:05:04;;;;;;;3.70;3.40;;;5.50;99.90;;;;;;5310076;27;20461;-67
2024/04/19 12:07:29;;;;;;;3.67;3.30;;;5.40;99.90;;;;;;5311314;26;20461;-67
2024/04/19 12:09:55;;;;;;;4.60;4.07;;;5.40;99.90;;;;;;5311962;26;20226;-69
2024/04/19 12:12:21;;;;;;;4.50;4.10;;;5.30;99.90;;;;;;5311974;26;20309;-67
2024/04/19 12:14:48;;;;;;;5.37;4.87;;;5.40;99.90;;;;;;5310680;26;20727;-67
2024/04/19 12:17:14;;;;;;;4.30;3.90;;;5.40;99.90;;;;;;5311390;26;20521;-66
2024/04/19 12:19:40;;;;;;;5.43;3.83;;;5.30;99.90;;;;;;5310441;26;20829;-67
2024/04/19 12:22:05;;;;;;;4.40;4.00;;;5.40;99.90;;;;;;5278049;26;20344;-65
2024/04/19 12:24:34;;;;;;;4.40;3.70;;;5.40;99.90;;;;;;5277462;27;20215;-66
2024/04/19 12:27:02;;;;;;;3.77;3.47;;;5.40;99.90;;;;;;5278761;27;20274;-67
2024/04/19 12:29:27;;;;;;;4.10;3.70;;;5.40;99.90;;;;;;5310865;26;20461;-67
2024/04/19 12:31:55;;;;;;;4.87;3.97;;;5.30;99.90;;;;;;5311353;26;21096;-67
2024/04/19 12:34:20;;;;;;;4.13;3.77;;;5.30;99.90;;;;;;5311953;26;20218;-67
2024/04/19 12:36:48;;;;;;;4.80;4.40;;;5.30;99.90;;;;;;5284177;26;20527;-67
2024/04/19 12:39:13;;;;;;;4.33;3.93;;;5.40;99.90;;;;;;5302403;27;20280;-66
2024/04/19 12:41:39;;;;;;;4.57;4.17;;;5.40;99.90;;;;;;5310605;26;20464;-67
2024/04/19 12:44:04;;;;;;;3.90;3.60;;;5.40;99.90;;;;;;5311384;26;20214;-66
2024/04/19 12:46:30;;;;;;;5.17;3.60;;;5.50;99.90;;;;;;5311503;26;20230;-67
2024/04/19 12:49:02;;;;;;;3.93;3.63;;;5.60;99.90;;;;;;5311199;26;20270;-67
2024/04/19 12:51:28;;;;;;;4.67;3.83;;;5.70;99.90;;;;;;5291871;26;20231;-67
2024/04/19 12:53:53;;;;;;;3.87;3.30;;;5.80;99.90;;;;;;5277319;27;20497;-67
2024/04/19 12:56:19;;;;;;;3.93;3.60;;;5.80;99.90;;;;;;5277373;27;20267;-66
2024/04/19 12:58:45;;;;;;;4.00;3.60;;;5.90;99.90;;;;;;5283511;27;20231;-66